Terminal Aerodrome Forecast
Issued by NWS

Home | Current Version | Previous Version | Text Only | Print | Product List | Glossary On
Versions: 1 2 3 4 5 6 7 8 9 10 11 12 13 14 15 16 17 18 19 20 21
000
FTUS43 KSGF 180600 AAA
TAFJLN
TAF AMD
KJLN 180636Z 1807/1906 09004KT 2SM -RADZ BR OVC008
     FM181000 13005KT 2SM -DZ BR OVC004
     FM181400 VRB04KT 4SM BR OVC007
     FM190000 03005KT 3SM BR OVC004=

USA.gov is the U.S. government's official web portal to all federal, state and local government web resources and services.